Terminal Aerodrome Forecast
Issued by NWS Jackson, MS

Home | Current Version | Previous Version | Text Only | Print | Product List | Glossary On
Versions: 1 2 3 4 5 6 7 8 9 10 11 12 13 14
000
FTUS44 KJAN 302330
TAFGWO
TAF
KGWO 302330Z 3100/3124 10006KT P6SM FEW080
     FM311000 VRB03KT 5SM BR HZ SKC
     FM311500 VRB05KT P6SM SCT050=

USA.gov is the U.S. government's official web portal to all federal, state and local government web resources and services.